createdAt,value
2022-08-26T00:01:12.123Z,22.25
2022-08-26T00:02:45.551Z,22.19
2022-08-26T00:04:22.248Z,22.18
2022-08-26T00:05:55.866Z,22.14
2022-08-26T00:07:29.415Z,22.09
2022-08-26T00:09:08.081Z,22.11
2022-08-26T00:10:44.163Z,22.12
2022-08-26T00:12:17.470Z,22.15
2022-08-26T00:13:51.291Z,22.16
2022-08-26T00:15:27.998Z,22.14
2022-08-26T00:17:01.775Z,22.14
2022-08-26T00:18:38.682Z,22.10
2022-08-26T00:20:16.963Z,22.09
2022-08-26T00:21:51.364Z,22.04
2022-08-26T00:23:24.979Z,22.00
2022-08-26T00:25:02.524Z,21.98
2022-08-26T00:26:37.518Z,21.98
2022-08-26T00:28:12.133Z,21.95
2022-08-26T00:29:45.421Z,21.91
2022-08-26T00:31:19.178Z,21.87
2022-08-26T00:32:52.803Z,21.81
2022-08-26T00:34:27.347Z,21.78
2022-08-26T00:36:01.408Z,21.73
2022-08-26T00:37:35.801Z,21.70
2022-08-26T00:39:09.657Z,21.60
2022-08-26T00:40:47.756Z,21.44
2022-08-26T00:42:22.717Z,21.38
2022-08-26T00:43:56.082Z,21.38
2022-08-26T00:45:39.763Z,21.40
2022-08-26T00:47:21.966Z,21.37
2022-08-26T00:49:03.311Z,21.42
2022-08-26T00:50:40.909Z,21.47
2022-08-26T00:52:17.737Z,21.52
2022-08-26T00:53:55.316Z,21.56
2022-08-26T00:55:34.759Z,21.57
2022-08-26T00:57:16.512Z,21.59
2022-08-26T00:58:52.204Z,21.59
2022-08-26T01:00:29.620Z,21.59
2022-08-26T01:02:05.628Z,21.59
2022-08-26T01:03:40.713Z,21.58
2022-08-26T01:05:18.069Z,21.60
2022-08-26T01:06:54.594Z,21.61
2022-08-26T01:08:28.088Z,21.62
2022-08-26T01:10:03.890Z,21.61
2022-08-26T01:11:37.452Z,21.63
2022-08-26T01:13:12.606Z,21.64
2022-08-26T01:14:47.399Z,21.63
2022-08-26T01:16:23.742Z,21.58
2022-08-26T01:17:56.519Z,21.58
2022-08-26T01:19:32.999Z,21.54
2022-08-26T01:21:12.500Z,21.49
2022-08-26T01:22:54.733Z,21.46
2022-08-26T01:24:30.127Z,21.42
2022-08-26T01:26:07.672Z,21.32
2022-08-26T01:27:55.541Z,21.23
2022-08-26T01:29:31.579Z,21.23
2022-08-26T01:31:08.958Z,21.26
2022-08-26T01:32:44.953Z,21.30
2022-08-26T01:34:21.816Z,21.29
2022-08-26T01:35:55.121Z,21.27
2022-08-26T01:37:34.144Z,21.30
2022-08-26T01:39:10.414Z,21.27
2022-08-26T01:40:46.205Z,21.24
2022-08-26T01:42:22.525Z,21.19
2022-08-26T01:43:58.718Z,21.14
2022-08-26T01:45:36.218Z,21.11
2022-08-26T01:47:11.518Z,21.09
2022-08-26T01:48:47.105Z,21.09
2022-08-26T01:50:27.621Z,21.12
2022-08-26T01:52:05.650Z,21.13
2022-08-26T01:53:41.793Z,21.15
2022-08-26T01:55:25.639Z,21.16
2022-08-26T01:57:08.027Z,21.08
2022-08-26T01:58:44.324Z,21.07
2022-08-26T02:00:17.527Z,21.10
2022-08-26T02:01:52.840Z,21.15
2022-08-26T02:03:29.214Z,21.16
2022-08-26T02:05:08.643Z,21.15
2022-08-26T02:06:42.996Z,21.13
2022-08-26T02:08:22.696Z,21.07
2022-08-26T02:09:58.736Z,21.03
2022-08-26T02:11:34.266Z,20.95
2022-08-26T02:13:11.716Z,20.96
2022-08-26T02:14:53.290Z,20.99
2022-08-26T02:16:31.431Z,21.03
2022-08-26T02:18:07.555Z,21.02
2022-08-26T02:19:50.567Z,21.02
2022-08-26T02:21:24.934Z,20.99
2022-08-26T02:22:57.495Z,20.99
2022-08-26T02:24:47.253Z,21.00
2022-08-26T02:26:24.282Z,20.98
2022-08-26T02:28:02.169Z,20.92
2022-08-26T02:29:42.567Z,20.83
2022-08-26T02:31:15.874Z,20.86
2022-08-26T02:32:49.575Z,20.92
2022-08-26T02:34:31.013Z,20.96
2022-08-26T02:36:06.366Z,21.02
2022-08-26T02:37:41.857Z,21.02
2022-08-26T02:39:22.036Z,21.06
2022-08-26T02:40:55.768Z,21.08
2022-08-26T02:42:29.138Z,21.06
2022-08-26T02:44:04.687Z,21.06
2022-08-26T02:45:38.226Z,21.07
2022-08-26T02:47:14.995Z,21.03
2022-08-26T02:48:48.502Z,21.05
2022-08-26T02:50:23.240Z,21.06
2022-08-26T02:52:01.844Z,21.09
2022-08-26T02:53:35.745Z,21.11
2022-08-26T02:55:09.854Z,21.15
2022-08-26T02:56:44.176Z,21.19
2022-08-26T02:58:17.522Z,21.18
2022-08-26T02:59:52.739Z,21.21
2022-08-26T03:01:28.126Z,21.24
2022-08-26T03:03:01.980Z,21.25
2022-08-26T03:04:35.391Z,21.26
2022-08-26T03:06:09.164Z,21.27
2022-08-26T03:07:44.593Z,21.27
2022-08-26T03:09:19.709Z,21.18
2022-08-26T03:10:52.913Z,21.13
2022-08-26T03:12:32.976Z,21.09
2022-08-26T03:14:07.400Z,21.05
2022-08-26T03:15:42.656Z,21.06
2022-08-26T03:17:16.185Z,21.05
2022-08-26T03:18:52.179Z,21.02
2022-08-26T03:20:26.346Z,20.97
2022-08-26T03:21:59.730Z,20.95
2022-08-26T03:23:34.323Z,20.95
2022-08-26T03:25:17.586Z,20.95
2022-08-26T03:26:52.942Z,20.94
2022-08-26T03:28:27.257Z,20.91
2022-08-26T03:30:19.112Z,20.86
2022-08-26T03:31:54.584Z,20.78
2022-08-26T03:33:28.935Z,20.79
2022-08-26T03:35:02.153Z,20.76
2022-08-26T03:36:36.307Z,20.74
2022-08-26T03:38:11.095Z,20.73
2022-08-26T03:39:44.454Z,20.73
2022-08-26T03:41:18.567Z,20.68
2022-08-26T03:42:54.125Z,20.68
2022-08-26T03:44:27.849Z,20.60
2022-08-26T03:46:05.532Z,20.68
2022-08-26T03:47:41.051Z,20.69
2022-08-26T03:49:15.211Z,20.69
2022-08-26T03:50:48.759Z,20.62
2022-08-26T03:52:23.364Z,20.65
2022-08-26T03:53:57.072Z,20.64
2022-08-26T03:55:33.195Z,20.64
2022-08-26T03:57:06.755Z,20.61
2022-08-26T03:58:38.998Z,20.58
2022-08-26T04:00:18.733Z,20.57
2022-08-26T04:01:53.042Z,20.57
2022-08-26T04:03:46.874Z,20.56
2022-08-26T04:05:22.741Z,20.55
2022-08-26T04:06:59.509Z,20.55
2022-08-26T04:08:33.074Z,20.56
2022-08-26T04:10:08.292Z,20.54
2022-08-26T04:11:45.796Z,20.54
2022-08-26T04:13:24.169Z,20.50
2022-08-26T04:14:58.236Z,20.51
2022-08-26T04:16:33.847Z,20.52
2022-08-26T04:18:08.492Z,20.58
2022-08-26T04:19:44.327Z,20.58
2022-08-26T04:21:17.562Z,20.60
2022-08-26T04:22:53.074Z,20.62
2022-08-26T04:24:27.854Z,20.66
2022-08-26T04:26:01.464Z,20.71
2022-08-26T04:27:35.507Z,20.75
2022-08-26T04:29:12.487Z,20.78
2022-08-26T04:30:46.228Z,20.79
2022-08-26T04:32:20.264Z,20.79
2022-08-26T04:33:53.770Z,20.81
2022-08-26T04:35:29.468Z,20.81
2022-08-26T04:37:02.828Z,20.86
2022-08-26T04:38:36.467Z,20.90
2022-08-26T04:40:12.012Z,20.94
2022-08-26T04:41:46.176Z,20.96
2022-08-26T04:43:18.703Z,20.99
2022-08-26T04:44:52.431Z,21.03
2022-08-26T04:46:26.050Z,21.03
2022-08-26T04:47:59.260Z,21.06
2022-08-26T04:49:35.471Z,21.09
2022-08-26T04:51:11.527Z,21.11
2022-08-26T04:52:44.767Z,21.09
2022-08-26T04:54:18.444Z,21.04
2022-08-26T04:55:52.499Z,21.01
2022-08-26T04:57:29.137Z,20.97
2022-08-26T04:59:03.057Z,20.93
2022-08-26T05:00:38.428Z,21.07
2022-08-26T05:02:12.006Z,21.12
2022-08-26T05:03:44.876Z,21.19
2022-08-26T05:05:18.790Z,21.25
2022-08-26T05:06:57.839Z,21.28
2022-08-26T05:08:37.048Z,21.36
2022-08-26T05:10:12.594Z,21.43
2022-08-26T05:11:52.149Z,21.49
2022-08-26T05:13:28.783Z,21.54
2022-08-26T05:15:02.061Z,21.57
2022-08-26T05:16:40.333Z,21.64
2022-08-26T05:18:21.360Z,21.70
2022-08-26T05:19:56.423Z,21.78
2022-08-26T05:21:30.245Z,21.89
2022-08-26T05:23:06.112Z,22.06
2022-08-26T05:24:41.247Z,22.24
2022-08-26T05:26:15.037Z,22.43
2022-08-26T05:27:50.035Z,22.68
2022-08-26T05:29:24.064Z,22.84
2022-08-26T05:30:58.300Z,22.80
2022-08-26T05:32:32.041Z,23.22
2022-08-26T05:34:06.201Z,23.28
2022-08-26T05:35:40.992Z,23.22
2022-08-26T05:37:14.214Z,23.08
2022-08-26T05:38:51.763Z,22.88
2022-08-26T05:40:25.578Z,22.97
2022-08-26T05:41:59.665Z,22.93
2022-08-26T05:43:33.259Z,22.99
2022-08-26T05:45:08.810Z,23.07
2022-08-26T05:46:44.850Z,23.10
2022-08-26T05:48:22.694Z,23.18
2022-08-26T05:49:57.545Z,23.19
2022-08-26T05:51:31.806Z,23.22
2022-08-26T05:53:05.250Z,23.21
2022-08-26T05:54:41.948Z,23.18
2022-08-26T05:56:15.919Z,23.12
2022-08-26T05:57:49.171Z,23.05
2022-08-26T05:59:24.498Z,23.05
2022-08-26T06:01:01.209Z,23.04
2022-08-26T06:02:34.532Z,23.08
2022-08-26T06:04:07.986Z,23.07
2022-08-26T06:05:41.217Z,23.15
2022-08-26T06:07:17.024Z,23.31
2022-08-26T06:08:52.371Z,23.75
2022-08-26T06:10:32.642Z,24.32
2022-08-26T06:12:06.786Z,24.97
2022-08-26T06:13:41.676Z,25.53
2022-08-26T06:15:15.667Z,26.06
2022-08-26T06:16:48.945Z,26.51
2022-08-26T06:18:24.422Z,27.00
2022-08-26T06:19:59.740Z,27.44
2022-08-26T06:21:39.183Z,27.91
2022-08-26T06:23:30.703Z,28.22
2022-08-26T06:25:21.628Z,28.33
2022-08-26T06:27:01.495Z,28.55
2022-08-26T06:28:35.085Z,28.83
2022-08-26T06:30:11.405Z,29.01
2022-08-26T06:31:46.048Z,28.96
2022-08-26T06:33:19.566Z,29.16
2022-08-26T06:34:52.739Z,29.38
2022-08-26T06:36:28.973Z,29.52
2022-08-26T06:38:02.758Z,29.60
2022-08-26T06:39:40.134Z,29.51
2022-08-26T06:41:14.763Z,29.23
2022-08-26T06:42:49.656Z,28.91
2022-08-26T06:44:23.707Z,28.63
2022-08-26T06:46:04.297Z,28.33
2022-08-26T06:47:38.456Z,28.27
2022-08-26T06:49:13.013Z,28.25
2022-08-26T06:50:47.219Z,28.19
2022-08-26T06:52:24.350Z,28.04
2022-08-26T06:53:59.614Z,27.95
2022-08-26T06:55:33.090Z,28.00
2022-08-26T06:57:06.886Z,28.00
2022-08-26T06:58:42.339Z,27.94
2022-08-26T07:00:16.607Z,27.79
2022-08-26T07:01:54.783Z,27.67
2022-08-26T07:03:28.677Z,27.46
2022-08-26T07:05:02.148Z,27.42
2022-08-26T07:06:39.204Z,27.38
2022-08-26T07:08:13.032Z,27.37
2022-08-26T07:09:47.323Z,27.53
2022-08-26T07:11:23.006Z,27.59
2022-08-26T07:12:57.614Z,27.66
2022-08-26T07:14:32.470Z,27.71
2022-08-26T07:16:08.191Z,28.02
2022-08-26T07:17:42.808Z,28.17
2022-08-26T07:19:17.572Z,28.22
2022-08-26T07:21:03.117Z,28.16
2022-08-26T07:22:37.755Z,28.12
2022-08-26T07:24:12.163Z,28.06
2022-08-26T07:25:45.465Z,28.07
2022-08-26T07:27:19.656Z,28.15
2022-08-26T07:28:55.993Z,28.16
2022-08-26T07:30:31.077Z,28.15
2022-08-26T07:32:05.120Z,28.21
2022-08-26T07:33:39.812Z,28.35
2022-08-26T07:35:14.263Z,28.37
2022-08-26T07:36:47.639Z,28.58
2022-08-26T07:38:22.006Z,28.88
2022-08-26T07:39:56.518Z,28.98
2022-08-26T07:43:08.476Z,28.78
2022-08-26T07:44:43.736Z,28.68
2022-08-26T07:46:27.236Z,28.61
2022-08-26T07:48:04.057Z,28.45
2022-08-26T07:49:38.181Z,28.43
2022-08-26T07:51:11.530Z,28.45
2022-08-26T07:52:45.341Z,28.50
2022-08-26T07:54:18.871Z,28.43
2022-08-26T07:55:52.548Z,28.38
2022-08-26T07:57:26.384Z,28.37
2022-08-26T07:58:59.821Z,28.32
2022-08-26T08:00:35.554Z,28.15
2022-08-26T08:02:10.238Z,28.03
2022-08-26T08:03:44.650Z,27.98
2022-08-26T08:05:21.364Z,27.97
2022-08-26T08:06:55.807Z,27.97
2022-08-26T08:08:29.283Z,28.01
2022-08-26T08:10:04.595Z,28.07
2022-08-26T08:11:41.497Z,28.11
2022-08-26T08:13:16.648Z,28.18
2022-08-26T08:14:52.499Z,28.48
2022-08-26T08:16:32.262Z,28.88
2022-08-26T08:18:15.446Z,29.57
2022-08-26T08:19:49.386Z,30.23
2022-08-26T08:21:23.993Z,30.80
2022-08-26T08:22:57.694Z,31.38
2022-08-26T08:24:31.396Z,31.89
2022-08-26T08:26:06.947Z,32.28
2022-08-26T08:27:43.176Z,32.40
2022-08-26T08:29:16.519Z,32.08
2022-08-26T08:30:50.055Z,31.95
2022-08-26T08:32:24.145Z,31.73
2022-08-26T08:33:58.871Z,31.34
2022-08-26T08:35:32.716Z,31.13
2022-08-26T08:37:08.778Z,31.00
2022-08-26T08:38:45.439Z,30.92
2022-08-26T08:40:18.957Z,30.58
2022-08-26T08:42:07.759Z,30.39
2022-08-26T08:43:47.559Z,30.72
2022-08-26T08:45:33.330Z,31.32
2022-08-26T08:47:18.764Z,31.96
2022-08-26T08:48:59.948Z,32.43
2022-08-26T08:50:38.427Z,32.56
2022-08-26T08:52:28.976Z,32.51
2022-08-26T08:54:03.541Z,32.48
2022-08-26T08:55:48.818Z,31.92
2022-08-26T08:57:28.967Z,31.55
2022-08-26T08:59:16.509Z,31.35
2022-08-26T09:00:55.429Z,31.21
2022-08-26T09:02:35.853Z,31.07
2022-08-26T09:04:31.160Z,30.94
2022-08-26T09:06:16.970Z,30.70
2022-08-26T09:07:54.825Z,30.61
2022-08-26T09:09:34.868Z,30.50
2022-08-26T09:11:08.098Z,30.42
2022-08-26T09:12:44.905Z,30.23
2022-08-26T09:14:18.924Z,30.22
2022-08-26T09:16:01.875Z,30.22
2022-08-26T09:17:45.533Z,30.27
2022-08-26T09:19:28.497Z,30.29
2022-08-26T09:21:04.412Z,30.51
2022-08-26T09:22:40.350Z,30.59
2022-08-26T09:24:18.141Z,30.70
2022-08-26T09:27:44.053Z,30.87
2022-08-26T09:29:22.956Z,31.11
2022-08-26T09:31:07.943Z,31.46
2022-08-26T09:32:55.978Z,31.69
2022-08-26T09:34:29.722Z,31.85
2022-08-26T09:36:23.068Z,31.89
2022-08-26T09:38:00.290Z,32.21
2022-08-26T09:39:37.669Z,32.59
2022-08-26T09:41:27.231Z,32.98
2022-08-26T09:43:09.815Z,33.07
2022-08-26T09:44:56.553Z,33.10
2022-08-26T09:46:30.556Z,33.15
2022-08-26T09:48:04.836Z,33.10
2022-08-26T09:49:39.833Z,33.03
2022-08-26T09:51:31.599Z,33.14
2022-08-26T09:53:12.878Z,33.18
2022-08-26T09:54:59.308Z,33.10
2022-08-26T09:56:35.513Z,33.12
2022-08-26T09:58:13.614Z,33.11
2022-08-26T09:59:47.255Z,33.05
2022-08-26T10:01:31.978Z,32.82
2022-08-26T10:03:24.824Z,32.68
2022-08-26T10:05:04.461Z,32.60
2022-08-26T10:06:45.214Z,32.38
2022-08-26T10:08:27.436Z,31.89
2022-08-26T10:10:01.463Z,31.77
2022-08-26T10:11:40.891Z,31.86
2022-08-26T10:13:21.120Z,31.75
2022-08-26T10:15:03.280Z,31.76
2022-08-26T10:16:44.194Z,31.70
2022-08-26T10:18:23.747Z,31.60
2022-08-26T10:20:04.103Z,31.42
2022-08-26T10:21:52.273Z,31.26
2022-08-26T10:23:34.075Z,31.37
2022-08-26T10:25:13.117Z,31.61
2022-08-26T10:26:59.619Z,31.55
2022-08-26T10:28:38.372Z,31.63
2022-08-26T10:30:15.323Z,31.69
2022-08-26T10:31:53.099Z,31.79
2022-08-26T10:33:26.849Z,31.82
2022-08-26T10:35:00.121Z,31.86
2022-08-26T10:37:14.917Z,31.92
2022-08-26T10:38:47.544Z,32.11
2022-08-26T10:40:26.608Z,32.22
2022-08-26T10:42:04.611Z,32.40
2022-08-26T10:43:43.094Z,31.98
2022-08-26T10:45:20.671Z,31.94
2022-08-26T10:46:59.997Z,31.89
2022-08-26T10:48:40.749Z,32.15
2022-08-26T10:50:14.103Z,32.47
2022-08-26T10:51:59.521Z,32.75
2022-08-26T10:53:44.293Z,32.98
2022-08-26T10:55:25.925Z,33.05
2022-08-26T10:57:03.606Z,33.13
2022-08-26T10:58:53.735Z,32.78
2022-08-26T11:01:10.496Z,32.75
2022-08-26T11:02:50.439Z,32.37
2022-08-26T11:04:39.320Z,32.26
2022-08-26T11:06:24.080Z,32.24
2022-08-26T11:08:32.763Z,32.17
2022-08-26T11:10:14.085Z,32.11
2022-08-26T11:11:50.845Z,32.18
2022-08-26T11:13:57.327Z,32.25
2022-08-26T11:16:10.244Z,32.32
2022-08-26T11:18:00.115Z,32.39
2022-08-26T11:20:09.249Z,32.37
2022-08-26T11:21:52.181Z,32.29
2022-08-26T11:23:50.811Z,32.24
2022-08-26T11:25:30.779Z,32.26
2022-08-26T11:27:03.524Z,32.29
2022-08-26T11:28:40.027Z,32.33
2022-08-26T11:30:40.025Z,32.26
2022-08-26T11:32:26.317Z,32.33
2022-08-26T11:34:00.739Z,32.36
2022-08-26T11:35:52.184Z,32.38
2022-08-26T11:37:33.215Z,32.37
2022-08-26T11:39:20.166Z,32.45
2022-08-26T11:41:09.463Z,32.45
2022-08-26T11:42:45.852Z,32.43
2022-08-26T11:44:21.956Z,32.44
2022-08-26T11:46:01.784Z,32.41
2022-08-26T11:47:35.786Z,32.38
2022-08-26T11:49:13.091Z,32.26
2022-08-26T11:50:54.477Z,32.13
2022-08-26T11:52:28.565Z,32.07
2022-08-26T11:54:13.334Z,31.91
2022-08-26T11:55:47.280Z,31.95
2022-08-26T11:57:20.663Z,31.92
2022-08-26T11:58:58.827Z,31.90
2022-08-26T12:00:47.894Z,31.85
2022-08-26T12:02:21.780Z,31.81
2022-08-26T12:03:55.813Z,31.87
2022-08-26T12:05:37.513Z,31.98
2022-08-26T12:07:13.115Z,32.06
2022-08-26T12:08:48.249Z,32.08
2022-08-26T12:10:31.049Z,32.13
2022-08-26T12:12:15.870Z,32.10
2022-08-26T12:13:57.708Z,32.09
2022-08-26T12:15:33.313Z,32.15
2022-08-26T12:17:11.363Z,32.22
2022-08-26T12:18:44.829Z,32.30
2022-08-26T12:20:28.493Z,32.38
2022-08-26T12:22:04.267Z,32.44
2022-08-26T12:23:46.813Z,32.42
2022-08-26T12:25:25.020Z,32.38
2022-08-26T12:27:16.899Z,32.40
2022-08-26T12:28:54.093Z,32.36
2022-08-26T12:30:27.475Z,32.44
2022-08-26T12:32:11.176Z,32.48
2022-08-26T12:33:44.518Z,32.56
2022-08-26T12:35:21.615Z,32.62
2022-08-26T12:38:40.495Z,32.69
2022-08-26T12:40:34.405Z,32.68
2022-08-26T12:42:25.285Z,32.68
2022-08-26T12:43:58.599Z,32.75
2022-08-26T12:45:34.573Z,32.75
2022-08-26T12:47:11.323Z,32.79
2022-08-26T12:48:48.601Z,32.81
2022-08-26T12:50:24.983Z,32.74
2022-08-26T12:51:58.374Z,32.76
2022-08-26T12:53:33.554Z,32.66
2022-08-26T12:55:19.328Z,32.53
2022-08-26T12:56:52.693Z,32.42
2022-08-26T12:58:30.021Z,32.37
2022-08-26T13:00:32.958Z,32.32
2022-08-26T13:02:07.221Z,32.35
2022-08-26T13:03:44.999Z,32.27
2022-08-26T13:11:31.236Z,32.12
2022-08-26T13:13:03.616Z,32.14
2022-08-26T13:14:36.770Z,32.07
2022-08-26T13:16:10.059Z,31.97
2022-08-26T13:17:43.767Z,31.89
2022-08-26T13:19:20.023Z,31.96
2022-08-26T13:20:53.282Z,32.03
2022-08-26T13:22:26.908Z,32.11
2022-08-26T13:24:06.530Z,32.16
2022-08-26T13:25:39.758Z,32.20
2022-08-26T13:39:23.594Z,31.61
2022-08-26T13:40:59.751Z,31.64
2022-08-26T13:42:32.897Z,31.69
2022-08-26T13:44:08.153Z,31.70
2022-08-26T13:45:41.644Z,31.76
2022-08-26T13:47:15.260Z,31.79
2022-08-26T13:52:30.478Z,31.64
2022-08-26T13:54:05.114Z,31.73
2022-08-26T13:55:38.415Z,31.79
2022-08-26T13:57:11.733Z,31.86
2022-08-26T13:58:46.236Z,31.84
2022-08-26T14:00:20.460Z,31.80
2022-08-26T14:01:53.716Z,31.86
2022-08-26T14:03:27.007Z,31.90
2022-08-26T14:05:00.643Z,31.94
2022-08-26T14:06:34.194Z,32.02
2022-08-26T14:08:09.055Z,32.02
2022-08-26T14:09:42.315Z,32.03
2022-08-26T14:11:15.741Z,32.09
2022-08-26T14:12:48.966Z,32.10
2022-08-26T14:14:22.124Z,32.08
2022-08-26T14:15:56.624Z,32.07
2022-08-26T14:17:30.746Z,32.09
2022-08-26T14:19:06.736Z,32.10
2022-08-26T14:20:40.615Z,32.14
2022-08-26T14:22:15.402Z,32.15
2022-08-26T14:23:50.226Z,32.14
2022-08-26T14:25:25.360Z,32.18
2022-08-26T14:26:58.652Z,32.20
2022-08-26T14:28:32.068Z,32.22
2022-08-26T14:30:06.358Z,32.20
2022-08-26T14:31:39.762Z,32.26
2022-08-26T14:33:16.701Z,32.20
2022-08-26T14:34:50.106Z,32.12
2022-08-26T14:36:28.491Z,32.29
2022-08-26T14:38:01.891Z,32.33
2022-08-26T14:39:37.136Z,32.39
2022-08-26T14:41:13.250Z,32.40
2022-08-26T14:43:07.632Z,32.54
2022-08-26T14:44:44.881Z,32.56
2022-08-26T14:46:18.691Z,32.60
2022-08-26T14:47:53.690Z,32.66
2022-08-26T14:49:27.919Z,32.68
2022-08-26T14:51:01.137Z,32.68
2022-08-26T14:52:55.166Z,32.62
2022-08-26T14:54:29.225Z,32.60
2022-08-26T14:56:04.394Z,32.64
2022-08-26T14:57:39.028Z,32.59
2022-08-26T14:59:12.908Z,32.55
2022-08-26T15:00:46.300Z,32.48
2022-08-26T15:02:32.688Z,32.42
2022-08-26T15:04:06.908Z,32.40
2022-08-26T15:05:47.960Z,32.34
2022-08-26T15:07:21.827Z,32.40
2022-08-26T15:08:55.387Z,32.41
2022-08-26T15:10:28.703Z,32.39
2022-08-26T15:12:03.970Z,32.31
2022-08-26T15:13:37.674Z,32.27
2022-08-26T15:15:13.020Z,32.26
2022-08-26T15:16:46.251Z,32.25
2022-08-26T15:18:19.592Z,32.20
2022-08-26T15:20:01.249Z,32.19
2022-08-26T15:21:35.436Z,32.17
2022-08-26T15:23:08.903Z,32.15
2022-08-26T15:24:42.784Z,32.11
2022-08-26T15:26:17.707Z,32.08
2022-08-26T15:27:52.602Z,32.01
2022-08-26T15:29:25.862Z,32.05
2022-08-26T15:31:00.501Z,32.05
2022-08-26T15:32:34.231Z,32.07
2022-08-26T15:34:14.558Z,32.06
2022-08-26T15:35:49.770Z,31.99
2022-08-26T15:37:23.166Z,32.02
2022-08-26T15:38:57.420Z,32.01
2022-08-26T15:40:30.979Z,31.99
2022-08-26T15:42:04.887Z,31.91
2022-08-26T15:43:39.582Z,31.95
2022-08-26T15:45:13.489Z,31.96
2022-08-26T15:46:59.580Z,31.93
2022-08-26T15:48:32.942Z,31.88
2022-08-26T15:50:07.500Z,31.87
2022-08-26T15:51:45.408Z,31.85
2022-08-26T15:53:19.617Z,31.75
2022-08-26T15:54:53.117Z,31.66
2022-08-26T15:56:27.608Z,31.57
2022-08-26T15:58:01.499Z,31.59
2022-08-26T15:59:37.247Z,31.55
2022-08-26T16:01:10.690Z,31.53
2022-08-26T16:02:44.362Z,31.50
2022-08-26T16:04:18.807Z,31.41
2022-08-26T16:05:52.153Z,31.35
2022-08-26T16:07:25.684Z,31.26
2022-08-26T16:08:59.587Z,31.22
2022-08-26T16:10:32.893Z,31.18
2022-08-26T16:12:06.676Z,31.13
2022-08-26T16:13:40.300Z,31.11
2022-08-26T16:15:15.233Z,31.09
2022-08-26T16:16:48.995Z,31.01
2022-08-26T16:18:23.655Z,30.95
2022-08-26T16:19:57.198Z,30.92
2022-08-26T16:21:30.550Z,30.88
2022-08-26T16:23:05.357Z,30.86
2022-08-26T16:24:38.978Z,30.77
2022-08-26T16:26:14.311Z,30.77
2022-08-26T16:27:47.616Z,30.75
2022-08-26T16:29:21.676Z,30.68
2022-08-26T16:30:56.633Z,30.64
2022-08-26T16:32:31.339Z,30.60
2022-08-26T16:34:05.230Z,30.52
2022-08-26T16:35:38.949Z,30.45
2022-08-26T16:37:12.275Z,30.38
2022-08-26T16:38:50.090Z,30.29
2022-08-26T16:40:23.526Z,30.27
2022-08-26T16:41:57.188Z,30.24
2022-08-26T16:43:30.542Z,30.16
2022-08-26T16:45:03.862Z,30.06
2022-08-26T16:46:39.727Z,30.02
2022-08-26T16:48:13.700Z,29.95
2022-08-26T16:49:47.689Z,29.84
2022-08-26T16:51:23.688Z,29.76
2022-08-26T16:52:57.551Z,29.67
2022-08-26T16:54:31.115Z,29.57
2022-08-26T16:56:04.974Z,29.49
2022-08-26T16:57:38.713Z,29.46
2022-08-26T16:59:12.218Z,29.35
2022-08-26T17:00:45.549Z,29.23
2022-08-26T17:02:20.244Z,29.19
2022-08-26T17:03:54.320Z,29.13
2022-08-26T17:05:28.820Z,29.03
2022-08-26T17:07:02.845Z,29.02
2022-08-26T17:08:38.390Z,28.96
2022-08-26T17:10:12.412Z,28.88
2022-08-26T17:11:45.769Z,28.81
2022-08-26T17:13:20.970Z,28.75
2022-08-26T17:15:09.824Z,28.64
2022-08-26T17:16:43.205Z,28.62
2022-08-26T17:18:17.828Z,28.53
2022-08-26T17:19:51.135Z,28.48
2022-08-26T17:21:24.725Z,28.43
2022-08-26T17:22:59.012Z,28.32
2022-08-26T17:24:35.014Z,28.32
2022-08-26T17:26:09.443Z,28.29
2022-08-26T17:27:44.278Z,28.27
2022-08-26T17:29:17.505Z,28.24
2022-08-26T17:30:50.798Z,28.16
2022-08-26T17:32:24.318Z,28.09
2022-08-26T17:33:59.148Z,28.04
2022-08-26T17:35:32.713Z,27.96
2022-08-26T17:37:05.975Z,27.84
2022-08-26T17:38:39.978Z,27.78
2022-08-26T17:40:18.194Z,27.68
2022-08-26T17:41:51.627Z,27.60
2022-08-26T17:43:26.838Z,27.55
2022-08-26T17:45:00.452Z,27.47
2022-08-26T17:46:38.233Z,27.43
2022-08-26T17:48:12.162Z,27.38
2022-08-26T17:49:46.808Z,27.35
2022-08-26T17:51:21.152Z,27.33
2022-08-26T17:52:54.363Z,27.28
2022-08-26T17:54:27.760Z,27.25
2022-08-26T17:56:03.462Z,27.25
2022-08-26T17:57:40.947Z,27.23
2022-08-26T17:59:15.631Z,27.15
2022-08-26T18:00:52.344Z,27.10
2022-08-26T18:02:25.732Z,27.15
2022-08-26T18:04:00.625Z,27.14
2022-08-26T18:05:35.898Z,27.17
2022-08-26T18:07:09.400Z,27.17
2022-08-26T18:08:44.057Z,27.12
2022-08-26T18:10:19.815Z,27.10
2022-08-26T18:11:52.991Z,27.08
2022-08-26T18:13:26.279Z,27.04
2022-08-26T18:14:59.763Z,27.00
2022-08-26T18:16:38.302Z,26.94
2022-08-26T18:18:11.991Z,26.89
2022-08-26T18:19:45.361Z,26.74
2022-08-26T18:21:21.868Z,26.70
2022-08-26T18:22:55.767Z,26.65
2022-08-26T18:24:30.470Z,26.67
2022-08-26T18:26:03.900Z,26.69
2022-08-26T18:27:38.377Z,26.70
2022-08-26T18:29:11.674Z,26.73
2022-08-26T18:30:44.791Z,26.71
2022-08-26T18:32:18.180Z,26.72
2022-08-26T18:33:51.906Z,26.66
2022-08-26T18:35:28.508Z,26.69
2022-08-26T18:37:03.187Z,26.69
2022-08-26T18:38:36.683Z,26.71
2022-08-26T18:40:13.338Z,26.73
2022-08-26T18:41:49.926Z,26.72
2022-08-26T18:43:23.119Z,26.70
2022-08-26T18:44:56.821Z,26.57
2022-08-26T18:46:30.158Z,26.58
2022-08-26T18:48:04.865Z,26.42
2022-08-26T18:49:38.195Z,26.30
2022-08-26T18:51:17.910Z,26.27
2022-08-26T18:52:52.483Z,26.26
2022-08-26T18:54:26.249Z,26.16
2022-08-26T18:55:59.557Z,26.10
2022-08-26T18:57:32.753Z,26.05
2022-08-26T18:59:08.295Z,25.97
2022-08-26T19:00:41.788Z,25.86
2022-08-26T19:02:15.164Z,25.80
2022-08-26T19:03:48.830Z,25.73
2022-08-26T19:05:22.232Z,25.70
2022-08-26T19:06:56.084Z,25.68
2022-08-26T19:08:30.673Z,25.64
2022-08-26T19:10:04.449Z,25.56
2022-08-26T19:11:42.893Z,25.56
2022-08-26T19:13:16.706Z,25.44
2022-08-26T19:14:50.696Z,25.41
2022-08-26T19:16:26.662Z,25.34
2022-08-26T19:18:00.137Z,25.37
2022-08-26T19:19:33.928Z,25.39
2022-08-26T19:21:06.415Z,25.39
2022-08-26T19:22:39.685Z,25.35
2022-08-26T19:24:17.685Z,25.37
2022-08-26T19:25:54.110Z,25.37
2022-08-26T19:27:27.903Z,25.28
2022-08-26T19:29:01.446Z,25.26
2022-08-26T19:30:38.089Z,25.24
2022-08-26T19:32:12.586Z,25.16
2022-08-26T19:33:46.279Z,25.07
2022-08-26T19:35:19.522Z,25.07
2022-08-26T19:36:53.850Z,25.00
2022-08-26T19:38:27.814Z,25.02
2022-08-26T19:40:02.526Z,25.01
2022-08-26T19:41:38.159Z,24.99
2022-08-26T19:43:12.185Z,24.97
2022-08-26T19:45:02.867Z,24.94
2022-08-26T19:48:15.261Z,24.87
2022-08-26T19:49:48.674Z,24.85
2022-08-26T19:51:26.991Z,24.84
2022-08-26T19:53:00.654Z,24.76
2022-08-26T19:54:34.073Z,24.74
2022-08-26T19:56:07.903Z,24.70
2022-08-26T19:57:41.203Z,24.68
2022-08-26T19:59:14.436Z,24.68
2022-08-26T20:00:47.731Z,24.65
2022-08-26T20:02:21.367Z,24.58
2022-08-26T20:05:29.312Z,24.52
2022-08-26T20:07:03.333Z,24.50
2022-08-26T20:08:39.426Z,24.42
2022-08-26T20:10:14.423Z,24.43
2022-08-26T20:11:50.263Z,24.42
2022-08-26T20:13:23.656Z,24.43
2022-08-26T20:14:57.462Z,24.44
2022-08-26T20:16:31.141Z,24.46
2022-08-26T20:18:24.427Z,24.45
2022-08-26T20:20:30.056Z,24.36
2022-08-26T20:22:06.286Z,24.29
2022-08-26T20:23:39.660Z,24.27
2022-08-26T20:25:13.376Z,24.25
2022-08-26T20:26:48.971Z,24.19
2022-08-26T20:28:22.446Z,24.25
2022-08-26T20:29:55.967Z,24.16
2022-08-26T20:31:28.917Z,24.18
2022-08-26T20:33:02.200Z,24.15
2022-08-26T20:34:36.935Z,24.13
2022-08-26T20:36:10.892Z,24.08
2022-08-26T20:37:44.401Z,24.14
2022-08-26T20:39:19.841Z,24.17
2022-08-26T20:40:54.125Z,24.15
2022-08-26T20:42:31.040Z,24.15
2022-08-26T20:44:05.305Z,24.10
2022-08-26T20:45:38.965Z,24.11
2022-08-26T20:47:12.323Z,24.06
2022-08-26T20:48:45.871Z,24.08
2022-08-26T20:50:19.814Z,24.08
2022-08-26T20:51:53.535Z,24.01
2022-08-26T20:53:27.635Z,24.03
2022-08-26T20:55:00.788Z,23.99
2022-08-26T20:56:34.216Z,23.94
2022-08-26T20:58:08.947Z,23.90
2022-08-26T20:59:43.683Z,23.93
2022-08-26T21:01:18.762Z,23.93
2022-08-26T21:02:52.222Z,23.90
2022-08-26T21:04:27.561Z,23.90
2022-08-26T21:06:01.243Z,23.91
2022-08-26T21:07:34.494Z,23.91
2022-08-26T21:09:11.109Z,23.91
2022-08-26T21:10:45.553Z,23.90
2022-08-26T21:12:19.236Z,23.91
2022-08-26T21:14:06.664Z,23.90
2022-08-26T21:15:47.770Z,23.86